Terminal Aerodrome Forecast
Issued by NWS Shreveport, LA

Home | Current Version | Previous Version | Text Only | Print | Product List | Glossary On
Versions: 1 2 3 4 5 6 7 8 9 10 11 12 13 14 15 16 17 18 19
384
FTUS44 KSHV 302342
TAFTXK
TAF
KTXK 302342Z 0100/0124 05005KT P6SM FEW050
     FM010100 32005KT P6SM FEW050
     FM010600 35005KT P6SM BKN015
      TEMPO 0108/0111 4SM BR OVC005
     FM011200 02006KT P6SM SCT015 SCT030
     FM011700 05006KT P6SM SCT035=

USA.gov is the U.S. government's official web portal to all federal, state and local government web resources and services.